Wawa Airport
CYXZ : now visible

Airfield :











YOU CAN JOIN US ON...

 
LOGIN :

Register | Disclaimer

   EN    FR    IT 

 









Legend :    VFR   Marginal VFR   IFR   Intensive IFR   Very Intensive IFR
Visi :
Ceiling :
>= 8 km
>= 3000ft
5 to 8 km
1000 to 3000 ft
1500m to 5 km
500 to 1000 ft
800 to 1500m
200 to 500 ft
< 800m
< 200 ft
Symbols :   Thunderstorms  Fog  Heavy snow  Heavy precipitations  Wind > 20 kt






- Airport Elevation : 942 ft
- IATA code : YXZ


CYXZ - Wawa

EXPIRED METARs :
  • 200000Z 25009G21KT 180V310 6SM -SN FEW014 SCT029 BKN052 BKN250 01/M01 A2979 RMK SC2SC2SC3CI1 CI TR LAST STFD OBS/NXT OBS 201100Z SLP102
  • 192343Z 25007G18KT 200V310 15SM -SN FEW016 BKN053 BKN250 02/M02 A2978 RMK SC2SC5CI1 CI TR SLP100
  • 192300Z 25007G21KT 200V300 15SM FEW021 BKN051 BKN070 02/M02 A2979 RMK CU1SC5AC1 SLP101
  • 192200Z 26007G22KT 210V350 15SM FEW019 FEW055 SCT250 04/M02 A2978 RMK SC1SC1CI2 SLP098

Expired Forecast.
CZYZ FIR / North America



MET'MAP, your aeronautical weather chart ! - Copyright ORBIFLY December 2007 - Disclaimer

ORBIFLY MET'MAP TEAM :

Programming & Development : Alexandra Zaïnal
Original concept : Baudouin d'Aumeries
Technical & hardware support : Manuel Goepfert
Assistance : Marc-Olivier Méhu




SOURCES & CREDITS :

   NOAA       Earth
Advisory